Estevan, Canada
Current Conditions -  °F | °C
As of 1:00 AM on Saturday 25 Oct 2014 (Local Time) from CYEN Reporting Station
Clear Clear  
Wind Chill: 27°   Ceiling: Unl
Heat Index: 34°   Visibility: 15mi
Dew Point: 28°   Wind: 8mph
Humidity: 81%   Direction: 260°W
Pressure: 30.04"   Gusts: NA
Location:  49.14°N, 102.99°W
Report Text: CYEN 250700Z 26007KT 15SM SKC 01/M02 A3004 RMK SLP189
Loading
Personal Weather Stations






























Interactive Weather Map
Tropical Storm Tracking
New forecast layout! Learn more

10-Day Weather Forecast

Advertisements
Track Severe Weather on mobile